Port Adelaide, Australia
Current Conditions -  °F | °C
As of 7:00 PM on Monday 22 Dec 2014 (Local Time) from YPAD Reporting Station
Broken Clouds Broken Clouds  
Wind Chill: 70°   Ceiling: 10000
Heat Index: 70°   Visibility: 6mi
Dew Point: 64°   Wind: 6mph
Humidity: 83%   Direction: 170°S
Pressure: 29.74"   Gusts: NA
Location:  34.85°S, 138.51°E
Report Text: YPAD 220900Z 17005KT CAVOK 21/18 Q1007 INTER 1000/1200 5000 SHRA SCT025 BKN100
Loading
Personal Weather Stations






























Interactive Weather Map New forecast layout! Learn more

10-Day Weather Forecast

Advertisements
Track Severe Weather on mobile